createdAt,value
2019-03-03T00:02:07.863Z,-2.50
2019-03-03T00:04:40.521Z,-2.50
2019-03-03T00:07:13.104Z,-2.50
2019-03-03T00:09:45.863Z,-2.60
2019-03-03T00:12:18.743Z,-2.60
2019-03-03T00:14:51.988Z,-2.70
2019-03-03T00:17:24.680Z,-2.70
2019-03-03T00:19:57.964Z,-2.70
2019-03-03T00:22:30.606Z,-2.70
2019-03-03T00:25:05.582Z,-2.80
2019-03-03T00:27:37.653Z,-2.80
2019-03-03T00:30:11.846Z,-2.80
2019-03-03T00:32:44.726Z,-2.80
2019-03-03T00:35:19.755Z,-2.80
2019-03-03T00:38:09.047Z,-2.90
2019-03-03T00:41:03.353Z,-2.90
2019-03-03T00:43:50.203Z,-3.00
2019-03-03T00:46:56.226Z,-3.10
2019-03-03T00:49:41.396Z,-3.10
2019-03-03T00:52:32.127Z,-3.10
2019-03-03T00:55:17.522Z,-3.20
2019-03-03T00:58:06.098Z,-3.20
2019-03-03T01:01:07.695Z,-3.30
2019-03-03T01:03:53.757Z,-3.30
2019-03-03T01:06:49.538Z,-3.40
2019-03-03T01:09:45.296Z,-3.40
2019-03-03T01:12:38.952Z,-3.50
2019-03-03T01:15:29.079Z,-3.50
2019-03-03T01:18:32.436Z,-3.50
2019-03-03T01:21:20.693Z,-3.50
2019-03-03T01:24:10.714Z,-3.50
2019-03-03T01:26:43.724Z,-3.50
2019-03-03T01:29:17.374Z,-3.50
2019-03-03T01:31:51.916Z,-3.50
2019-03-03T01:34:27.125Z,-3.50
2019-03-03T01:37:00.933Z,-3.50
2019-03-03T01:39:34.543Z,-3.50
2019-03-03T01:42:07.882Z,-3.50
2019-03-03T01:44:41.782Z,-3.50
2019-03-03T01:47:14.592Z,-3.50
2019-03-03T01:49:50.022Z,-3.50
2019-03-03T01:52:23.187Z,-3.50
2019-03-03T01:54:56.442Z,-3.50
2019-03-03T01:57:29.201Z,-3.50
2019-03-03T02:00:03.988Z,-3.50
2019-03-03T02:02:37.097Z,-3.50
2019-03-03T02:05:10.416Z,-3.50
2019-03-03T02:07:45.558Z,-3.50
2019-03-03T02:10:19.213Z,-3.60
2019-03-03T02:12:51.818Z,-3.50
2019-03-03T02:15:24.446Z,-3.60
2019-03-03T02:18:00.934Z,-3.60
2019-03-03T02:20:33.296Z,-3.60
2019-03-03T02:23:06.179Z,-3.60
2019-03-03T02:25:38.964Z,-3.60
2019-03-03T02:28:11.621Z,-3.60
2019-03-03T02:30:45.068Z,-3.60
2019-03-03T02:33:17.824Z,-3.60
2019-03-03T02:35:50.719Z,-3.70
2019-03-03T02:38:23.438Z,-3.70
2019-03-03T02:40:56.209Z,-3.70
2019-03-03T02:43:28.644Z,-3.80
2019-03-03T02:46:01.301Z,-3.80
2019-03-03T02:48:33.516Z,-3.90
2019-03-03T02:51:06.030Z,-3.90
2019-03-03T02:53:38.754Z,-3.90
2019-03-03T02:56:11.808Z,-4.00
2019-03-03T02:58:44.698Z,-4.00
2019-03-03T03:01:22.019Z,-4.10
2019-03-03T03:03:54.647Z,-4.10
2019-03-03T03:06:54.662Z,-4.10
2019-03-03T03:09:30.261Z,-4.20
2019-03-03T03:12:24.866Z,-4.30
2019-03-03T03:15:07.370Z,-4.30
2019-03-03T03:18:06.411Z,-4.40
2019-03-03T03:20:56.351Z,-4.40
2019-03-03T03:23:38.082Z,-4.40
2019-03-03T03:26:36.276Z,-4.40
2019-03-03T03:29:25.802Z,-4.40
2019-03-03T03:32:16.954Z,-4.40
2019-03-03T03:34:59.014Z,-4.40
2019-03-03T03:37:40.140Z,-4.50
2019-03-03T03:40:39.654Z,-4.50
2019-03-03T03:43:30.568Z,-4.40
2019-03-03T03:46:29.052Z,-4.50
2019-03-03T03:49:22.122Z,-4.50
2019-03-03T03:52:25.415Z,-4.40
2019-03-03T03:55:28.206Z,-4.30
2019-03-03T03:58:11.300Z,-4.30
2019-03-03T04:01:05.440Z,-4.30
2019-03-03T04:03:59.108Z,-4.20
2019-03-03T04:07:05.176Z,-4.30
2019-03-03T04:10:10.719Z,-4.20
2019-03-03T04:13:08.181Z,-4.20
2019-03-03T04:16:00.193Z,-4.20
2019-03-03T04:18:44.669Z,-4.20
2019-03-03T04:21:23.218Z,-4.30
2019-03-03T04:24:12.369Z,-4.30
2019-03-03T04:27:07.606Z,-4.20
2019-03-03T04:30:00.911Z,-4.30
2019-03-03T04:33:03.879Z,-4.30
2019-03-03T04:35:45.788Z,-4.40
2019-03-03T04:38:45.730Z,-4.50
2019-03-03T04:41:35.415Z,-4.50
2019-03-03T04:44:12.802Z,-4.60
2019-03-03T04:46:56.606Z,-4.70
2019-03-03T04:49:42.593Z,-4.60
2019-03-03T04:52:32.965Z,-4.70
2019-03-03T04:55:31.468Z,-4.60
2019-03-03T04:58:20.113Z,-4.70
2019-03-03T05:01:22.721Z,-4.70
2019-03-03T05:04:12.318Z,-4.70
2019-03-03T05:07:18.265Z,-4.70
2019-03-03T05:10:08.932Z,-4.80
2019-03-03T05:13:09.366Z,-4.90
2019-03-03T05:16:06.210Z,-5.00
2019-03-03T05:18:42.968Z,-5.00
2019-03-03T05:21:15.920Z,-5.00
2019-03-03T05:23:48.190Z,-5.00
2019-03-03T05:26:21.398Z,-5.00
2019-03-03T05:28:53.660Z,-5.00
2019-03-03T05:31:26.153Z,-4.90
2019-03-03T05:33:58.591Z,-4.90
2019-03-03T05:36:31.289Z,-4.80
2019-03-03T05:39:04.862Z,-4.80
2019-03-03T05:41:37.370Z,-4.80
2019-03-03T05:44:10.013Z,-4.80
2019-03-03T05:46:42.657Z,-4.80
2019-03-03T05:49:15.367Z,-4.80
2019-03-03T05:51:48.210Z,-4.90
2019-03-03T05:54:21.129Z,-4.80
2019-03-03T05:56:53.791Z,-4.90
2019-03-03T05:59:26.954Z,-5.00
2019-03-03T06:01:59.686Z,-5.10
2019-03-03T06:04:32.071Z,-5.20
2019-03-03T06:07:05.059Z,-5.40
2019-03-03T06:09:37.445Z,-5.40
2019-03-03T06:12:10.526Z,-5.30
2019-03-03T06:14:43.274Z,-5.30
2019-03-03T06:17:15.980Z,-5.30
2019-03-03T06:19:48.557Z,-5.30
2019-03-03T06:22:20.794Z,-5.40
2019-03-03T06:24:53.378Z,-5.50
2019-03-03T06:27:25.958Z,-5.70
2019-03-03T06:29:58.269Z,-5.80
2019-03-03T06:32:31.363Z,-6.00
2019-03-03T06:35:03.823Z,-6.30
2019-03-03T06:37:36.535Z,-6.50
2019-03-03T06:40:09.890Z,-6.70
2019-03-03T06:42:42.922Z,-6.90
2019-03-03T06:45:16.224Z,-6.90
2019-03-03T06:47:48.824Z,-6.80
2019-03-03T06:50:21.502Z,-6.70
2019-03-03T06:52:54.278Z,-6.70
2019-03-03T06:55:26.530Z,-6.90
2019-03-03T06:57:59.043Z,-7.10
2019-03-03T07:00:31.871Z,-7.30
2019-03-03T07:03:04.730Z,-7.50
2019-03-03T07:05:37.335Z,-7.60
2019-03-03T07:08:10.229Z,-7.80
2019-03-03T07:10:42.461Z,-7.70
2019-03-03T07:13:15.139Z,-7.70
2019-03-03T07:15:47.712Z,-7.60
2019-03-03T07:18:20.060Z,-7.60
2019-03-03T07:20:52.387Z,-7.60
2019-03-03T07:23:25.134Z,-7.70
2019-03-03T07:25:57.701Z,-7.70
2019-03-03T07:28:30.479Z,-7.80
2019-03-03T07:31:02.793Z,-7.80
2019-03-03T07:33:36.883Z,-7.90
2019-03-03T07:36:10.150Z,-7.90
2019-03-03T07:38:42.793Z,-8.10
2019-03-03T07:41:15.633Z,-8.30
2019-03-03T07:43:48.086Z,-8.40
2019-03-03T07:46:20.519Z,-8.30
2019-03-03T07:48:53.290Z,-8.30
2019-03-03T07:51:25.809Z,-8.20
2019-03-03T07:53:58.052Z,-8.00
2019-03-03T07:56:30.711Z,-7.80
2019-03-03T07:59:03.378Z,-7.70
2019-03-03T08:01:35.844Z,-7.50
2019-03-03T08:04:08.374Z,-7.40
2019-03-03T08:06:41.216Z,-7.30
2019-03-03T08:09:14.693Z,-7.30
2019-03-03T08:11:47.110Z,-7.20
2019-03-03T08:14:19.290Z,-7.20
2019-03-03T08:16:51.860Z,-7.20
2019-03-03T08:19:24.146Z,-7.20
2019-03-03T08:21:56.393Z,-7.20
2019-03-03T08:24:28.803Z,-7.20
2019-03-03T08:27:01.196Z,-7.10
2019-03-03T08:29:33.743Z,-7.10
2019-03-03T08:32:06.071Z,-7.10
2019-03-03T08:34:38.866Z,-7.10
2019-03-03T08:37:11.417Z,-7.00
2019-03-03T08:39:43.939Z,-7.00
2019-03-03T08:42:32.982Z,-7.00
2019-03-03T08:45:39.965Z,-7.10
2019-03-03T08:48:19.984Z,-7.10
2019-03-03T08:51:02.914Z,-7.30
2019-03-03T08:53:42.109Z,-7.50
2019-03-03T08:56:25.767Z,-7.50
2019-03-03T08:59:15.618Z,-7.70
2019-03-03T09:01:57.984Z,-7.80
2019-03-03T09:04:48.134Z,-8.00
2019-03-03T09:07:48.277Z,-8.20
2019-03-03T09:10:38.370Z,-8.30
2019-03-03T09:13:28.766Z,-8.40
2019-03-03T09:16:22.321Z,-8.40
2019-03-03T09:19:19.183Z,-8.30
2019-03-03T09:22:25.270Z,-8.20
2019-03-03T09:25:15.407Z,-8.20
2019-03-03T09:27:57.239Z,-8.10
2019-03-03T09:30:46.799Z,-8.10
2019-03-03T09:33:49.622Z,-8.00
2019-03-03T09:36:38.893Z,-8.00
2019-03-03T09:39:32.909Z,-8.10
2019-03-03T09:42:14.922Z,-8.20
2019-03-03T09:45:08.645Z,-8.00
2019-03-03T09:47:59.613Z,-8.00
2019-03-03T09:50:46.526Z,-7.90
2019-03-03T09:53:25.272Z,-7.70
2019-03-03T09:56:13.938Z,-7.60
2019-03-03T09:59:08.069Z,-7.50
2019-03-03T10:01:55.724Z,-7.50
2019-03-03T10:05:01.701Z,-7.30
2019-03-03T10:07:55.823Z,-7.30
2019-03-03T10:10:46.836Z,-7.20
2019-03-03T10:13:32.449Z,-7.20
2019-03-03T10:16:22.566Z,-7.10
2019-03-03T10:19:11.605Z,-7.10
2019-03-03T10:21:53.838Z,-7.10
2019-03-03T10:24:44.653Z,-7.00
2019-03-03T10:27:33.814Z,-7.00
2019-03-03T10:30:40.030Z,-7.00
2019-03-03T10:33:42.871Z,-6.90
2019-03-03T10:36:37.037Z,-6.90
2019-03-03T10:39:26.558Z,-6.80
2019-03-03T10:42:27.966Z,-6.70
2019-03-03T10:45:17.652Z,-6.80
2019-03-03T10:48:24.131Z,-6.80
2019-03-03T10:51:15.221Z,-6.70
2019-03-03T10:54:08.811Z,-6.70
2019-03-03T10:56:57.346Z,-6.70
2019-03-03T11:00:06.578Z,-6.70
2019-03-03T11:02:49.761Z,-6.70
2019-03-03T11:05:40.969Z,-6.70
2019-03-03T11:08:25.598Z,-6.60
2019-03-03T11:11:16.789Z,-6.60
2019-03-03T11:14:13.563Z,-6.60
2019-03-03T11:17:10.464Z,-6.60
2019-03-03T11:19:58.901Z,-6.60
2019-03-03T11:22:48.381Z,-6.50
2019-03-03T11:25:58.025Z,-6.50
2019-03-03T11:28:54.822Z,-6.50
2019-03-03T11:31:43.996Z,-6.50
2019-03-03T11:34:40.707Z,-6.50
2019-03-03T11:37:27.971Z,-6.50
2019-03-03T11:40:20.453Z,-6.50
2019-03-03T11:43:13.434Z,-6.40
2019-03-03T11:45:54.657Z,-6.40
2019-03-03T11:48:44.063Z,-6.40
2019-03-03T11:51:30.461Z,-6.40
2019-03-03T11:54:11.546Z,-6.30
2019-03-03T11:56:53.229Z,-6.30
2019-03-03T11:59:37.482Z,-6.20
2019-03-03T12:02:27.029Z,-6.10
2019-03-03T12:05:23.728Z,-6.10
2019-03-03T12:08:17.007Z,-6.10
2019-03-03T12:11:14.962Z,-6.00
2019-03-03T12:14:08.746Z,-6.00
2019-03-03T12:17:08.806Z,-6.00
2019-03-03T12:19:48.209Z,-6.20
2019-03-03T12:22:39.780Z,-6.30
2019-03-03T12:25:25.575Z,-6.50
2019-03-03T12:28:31.445Z,-6.50
2019-03-03T12:31:34.159Z,-6.40
2019-03-03T12:34:23.330Z,-6.30
2019-03-03T12:37:32.672Z,-6.10
2019-03-03T12:40:37.246Z,-6.00
2019-03-03T12:43:24.278Z,-5.90
2019-03-03T12:46:15.202Z,-5.80
2019-03-03T12:48:54.729Z,-5.80
2019-03-03T12:51:48.426Z,-5.70
2019-03-03T12:54:35.418Z,-5.70
2019-03-03T12:57:34.954Z,-5.60
2019-03-03T13:00:32.380Z,-5.50
2019-03-03T13:03:41.849Z,-5.40
2019-03-03T13:06:31.352Z,-5.30
2019-03-03T13:09:23.140Z,-5.20
2019-03-03T13:12:05.303Z,-5.20
2019-03-03T13:15:02.553Z,-5.00
2019-03-03T13:17:51.985Z,-4.90
2019-03-03T13:20:43.143Z,-4.90
2019-03-03T13:23:22.029Z,-4.90
2019-03-03T13:26:01.154Z,-4.80
2019-03-03T13:28:51.194Z,-4.70
2019-03-03T13:31:47.942Z,-4.60
2019-03-03T13:34:40.692Z,-4.50
2019-03-03T13:37:30.163Z,-4.40
2019-03-03T13:40:19.761Z,-4.10
2019-03-03T13:43:01.784Z,-3.90
2019-03-03T13:45:36.462Z,-3.70
2019-03-03T13:48:09.085Z,-3.70
2019-03-03T13:50:41.871Z,-3.60
2019-03-03T13:53:14.658Z,-3.50
2019-03-03T13:55:47.299Z,-3.40
2019-03-03T13:58:20.201Z,-3.40
2019-03-03T14:00:52.973Z,-3.30
2019-03-03T14:03:26.045Z,-3.10
2019-03-03T14:05:58.949Z,-3.10
2019-03-03T14:08:31.603Z,-3.00
2019-03-03T14:11:04.893Z,-2.90
2019-03-03T14:13:37.844Z,-2.80
2019-03-03T14:16:12.035Z,-2.60
2019-03-03T14:18:45.400Z,-2.30
2019-03-03T14:21:18.183Z,-2.10
2019-03-03T14:23:50.610Z,-1.90
2019-03-03T14:26:23.065Z,-1.90
2019-03-03T14:28:56.069Z,-1.80
2019-03-03T14:31:28.709Z,-1.50
2019-03-03T14:34:01.496Z,-1.60
2019-03-03T14:36:33.661Z,-1.70
2019-03-03T14:39:07.389Z,-1.60
2019-03-03T14:41:40.152Z,-1.10
2019-03-03T14:44:13.161Z,-0.80
2019-03-03T14:46:45.926Z,-0.70
2019-03-03T14:49:19.057Z,-0.60
2019-03-03T14:51:52.030Z,-0.50
2019-03-03T14:54:24.547Z,-0.10
2019-03-03T14:56:57.171Z,0.20
2019-03-03T14:59:30.933Z,0.30
2019-03-03T15:02:03.975Z,0.40
2019-03-03T15:04:36.415Z,0.40
2019-03-03T15:07:09.582Z,0.10
2019-03-03T15:09:42.103Z,0.30
2019-03-03T15:12:14.872Z,0.20
2019-03-03T15:14:47.581Z,-0.30
2019-03-03T15:17:20.117Z,-0.90
2019-03-03T15:19:52.540Z,-1.00
2019-03-03T15:22:25.427Z,-0.80
2019-03-03T15:24:58.000Z,-0.50
2019-03-03T15:27:30.758Z,-0.20
2019-03-03T15:30:05.088Z,-0.10
2019-03-03T15:32:37.741Z,0.10
2019-03-03T15:35:11.481Z,0.30
2019-03-03T15:37:43.990Z,0.50
2019-03-03T15:40:17.443Z,1.00
2019-03-03T15:42:50.485Z,1.30
2019-03-03T15:45:24.512Z,1.40
2019-03-03T15:47:57.125Z,1.10
2019-03-03T15:50:29.989Z,1.20
2019-03-03T15:53:02.073Z,1.20
2019-03-03T15:55:34.510Z,1.50
2019-03-03T15:58:06.981Z,1.40
2019-03-03T16:00:40.337Z,1.50
2019-03-03T16:03:13.589Z,1.70
2019-03-03T16:05:46.458Z,1.60
2019-03-03T16:08:19.045Z,1.60
2019-03-03T16:10:51.750Z,1.50
2019-03-03T16:13:24.296Z,1.40
2019-03-03T16:15:56.577Z,1.40
2019-03-03T16:18:28.805Z,1.00
2019-03-03T16:21:01.533Z,1.00
2019-03-03T16:23:33.859Z,1.00
2019-03-03T16:26:06.220Z,1.20
2019-03-03T16:28:38.629Z,1.40
2019-03-03T16:31:10.820Z,1.20
2019-03-03T16:33:43.642Z,1.00
2019-03-03T16:36:16.375Z,1.00
2019-03-03T16:38:49.347Z,1.20
2019-03-03T16:41:22.115Z,1.30
2019-03-03T16:43:54.709Z,1.30
2019-03-03T16:46:27.522Z,1.60
2019-03-03T16:49:00.260Z,2.10
2019-03-03T16:51:32.893Z,2.30
2019-03-03T16:54:05.837Z,2.60
2019-03-03T16:56:38.401Z,2.60
2019-03-03T16:59:10.569Z,2.50
2019-03-03T17:01:43.374Z,2.60
2019-03-03T17:04:16.277Z,2.70
2019-03-03T17:06:48.756Z,2.70
2019-03-03T17:09:21.578Z,2.80
2019-03-03T17:11:54.579Z,3.40
2019-03-03T17:14:28.131Z,3.70
2019-03-03T17:17:00.565Z,3.80
2019-03-03T17:19:34.819Z,3.50
2019-03-03T17:22:07.453Z,3.00
2019-03-03T17:24:40.059Z,3.40
2019-03-03T17:27:12.519Z,3.50
2019-03-03T17:29:45.506Z,3.20
2019-03-03T17:32:18.030Z,2.90
2019-03-03T17:34:50.565Z,2.80
2019-03-03T17:37:23.271Z,3.30
2019-03-03T17:39:56.163Z,3.50
2019-03-03T17:42:28.697Z,3.60
2019-03-03T17:45:01.796Z,4.10
2019-03-03T17:47:36.941Z,3.90
2019-03-03T17:50:10.923Z,4.00
2019-03-03T17:52:44.938Z,3.50
2019-03-03T17:55:18.189Z,3.30
2019-03-03T17:57:51.236Z,3.60
2019-03-03T18:00:25.963Z,3.60
2019-03-03T18:02:58.399Z,3.90
2019-03-03T18:05:31.456Z,3.40
2019-03-03T18:08:04.546Z,2.90
2019-03-03T18:10:37.418Z,2.60
2019-03-03T18:13:13.558Z,2.80
2019-03-03T18:15:46.371Z,3.00
2019-03-03T18:18:19.334Z,2.80
2019-03-03T18:20:52.445Z,3.00
2019-03-03T18:23:24.658Z,3.40
2019-03-03T18:25:56.823Z,3.50
2019-03-03T18:28:29.569Z,3.60
2019-03-03T18:31:02.273Z,3.60
2019-03-03T18:33:34.989Z,4.10
2019-03-03T18:36:07.548Z,4.50
2019-03-03T18:38:40.599Z,4.80
2019-03-03T18:41:13.693Z,4.50
2019-03-03T18:43:46.332Z,4.40
2019-03-03T18:46:18.862Z,4.40
2019-03-03T18:48:51.685Z,5.30
2019-03-03T18:51:24.354Z,4.90
2019-03-03T18:53:57.142Z,5.10
2019-03-03T18:56:29.290Z,5.50
2019-03-03T18:59:01.788Z,5.20
2019-03-03T19:01:34.219Z,5.20
2019-03-03T19:04:06.452Z,5.50
2019-03-03T19:06:39.070Z,5.50
2019-03-03T19:09:20.686Z,5.70
2019-03-03T19:11:53.080Z,5.60
2019-03-03T19:14:28.604Z,5.40
2019-03-03T19:16:59.785Z,5.10
2019-03-03T19:19:32.407Z,4.90
2019-03-03T19:22:05.397Z,4.70
2019-03-03T19:24:37.625Z,4.70
2019-03-03T19:27:10.229Z,4.50
2019-03-03T19:29:42.975Z,4.40
2019-03-03T19:32:15.953Z,4.40
2019-03-03T19:34:48.547Z,4.00
2019-03-03T19:37:21.239Z,3.60
2019-03-03T19:39:53.919Z,3.60
2019-03-03T19:42:26.088Z,3.70
2019-03-03T19:44:58.945Z,4.00
2019-03-03T19:47:31.533Z,4.00
2019-03-03T19:50:03.709Z,4.00
2019-03-03T19:52:36.378Z,3.80
2019-03-03T19:55:09.561Z,3.30
2019-03-03T19:57:42.208Z,2.90
2019-03-03T20:00:19.143Z,2.60
2019-03-03T20:02:52.134Z,2.50
2019-03-03T20:05:24.547Z,2.50
2019-03-03T20:07:57.480Z,2.40
2019-03-03T20:10:31.249Z,2.20
2019-03-03T20:13:04.078Z,2.30
2019-03-03T20:15:36.929Z,2.20
2019-03-03T20:18:10.277Z,2.20
2019-03-03T20:20:43.034Z,2.20
2019-03-03T20:23:15.854Z,2.00
2019-03-03T20:25:48.273Z,1.80
2019-03-03T20:28:21.051Z,1.80
2019-03-03T20:30:53.334Z,1.70
2019-03-03T20:33:26.549Z,1.50
2019-03-03T20:35:58.998Z,1.50
2019-03-03T20:38:31.692Z,1.30
2019-03-03T20:41:04.454Z,1.20
2019-03-03T20:43:37.162Z,1.30
2019-03-03T20:46:09.702Z,1.30
2019-03-03T20:48:42.109Z,1.10
2019-03-03T20:51:14.358Z,0.80
2019-03-03T20:53:46.802Z,0.70
2019-03-03T20:56:19.084Z,0.50
2019-03-03T20:58:51.691Z,0.40
2019-03-03T21:01:24.177Z,0.30
2019-03-03T21:03:57.367Z,0.30
2019-03-03T21:06:29.601Z,0.20
2019-03-03T21:09:02.380Z,0.20
2019-03-03T21:11:35.338Z,0.20
2019-03-03T21:14:07.896Z,0.20
2019-03-03T21:16:41.324Z,0.20
2019-03-03T21:19:20.265Z,0.10
2019-03-03T21:21:53.399Z,0.10
2019-03-03T21:24:26.299Z,-0.10
2019-03-03T21:26:58.541Z,-0.20
2019-03-03T21:29:43.506Z,-0.30
2019-03-03T21:32:18.367Z,-0.40
2019-03-03T21:34:51.647Z,-0.50
2019-03-03T21:37:25.117Z,-0.60
2019-03-03T21:40:03.589Z,-0.60
2019-03-03T21:42:38.366Z,-0.70
2019-03-03T21:45:12.378Z,-0.80
2019-03-03T21:47:54.149Z,-0.90
2019-03-03T21:50:29.625Z,-0.90
2019-03-03T21:53:02.116Z,-1.00
2019-03-03T21:55:41.169Z,-1.10
2019-03-03T21:58:13.924Z,-1.10
2019-03-03T22:00:53.567Z,-1.30
2019-03-03T22:03:26.630Z,-1.30
2019-03-03T22:05:59.629Z,-1.40
2019-03-03T22:08:32.667Z,-1.50
2019-03-03T22:11:05.326Z,-1.60
2019-03-03T22:13:41.325Z,-1.70
2019-03-03T22:16:13.981Z,-1.70
2019-03-03T22:18:46.596Z,-1.80
2019-03-03T22:21:19.018Z,-1.90
2019-03-03T22:23:51.726Z,-1.90
2019-03-03T22:26:24.607Z,-2.00
2019-03-03T22:28:57.359Z,-2.00
2019-03-03T22:31:30.276Z,-2.10
2019-03-03T22:34:02.753Z,-2.10
2019-03-03T22:36:35.781Z,-2.10
2019-03-03T22:39:10.210Z,-2.20
2019-03-03T22:41:42.718Z,-2.30
2019-03-03T22:44:15.122Z,-2.40
2019-03-03T22:46:47.729Z,-2.40
2019-03-03T22:49:20.737Z,-2.50
2019-03-03T22:51:55.406Z,-2.50
2019-03-03T22:54:27.725Z,-2.50
2019-03-03T22:57:00.374Z,-2.60
2019-03-03T22:59:33.570Z,-2.60
2019-03-03T23:02:06.103Z,-2.70
2019-03-03T23:05:12.913Z,-2.70
2019-03-03T23:07:54.225Z,-2.70
2019-03-03T23:10:54.663Z,-2.70
2019-03-03T23:13:41.158Z,-2.80
2019-03-03T23:16:56.548Z,-2.90
2019-03-03T23:20:01.241Z,-3.00
2019-03-03T23:23:22.564Z,-3.00
2019-03-03T23:25:58.007Z,-3.10
2019-03-03T23:28:30.699Z,-3.00
2019-03-03T23:31:03.350Z,-2.90
2019-03-03T23:33:35.845Z,-3.00
2019-03-03T23:36:08.136Z,-2.90
2019-03-03T23:38:40.894Z,-2.90
2019-03-03T23:41:13.681Z,-2.90
2019-03-03T23:43:46.703Z,-2.80
2019-03-03T23:46:19.187Z,-2.80
2019-03-03T23:48:51.320Z,-2.80
2019-03-03T23:51:23.886Z,-2.80
2019-03-03T23:53:56.709Z,-2.80
2019-03-03T23:56:29.037Z,-2.70
2019-03-03T23:59:01.734Z,-2.70
